<?xml version="1.0" encoding="UTF-8" standalone="no" ?>
<gpx xmlns="http://www.topografix.com/GPX/1/1" xmlns:xsi="http://www.w3.org/2001/XMLSchema-instance" xsi:schemaLocation="http://www.topografix.com/GPX/1/1 http://www.topografix.com/GPX/1/1/gpx.xsd" version="1.1" creator="VisuGPX - https://www.visugpx.com">
  <metadata>
    <name>Balades et randos - Ecurie AMOEDO</name>
  </metadata>
  <trk>
    <name><![CDATA[Vallères]]></name>
    <trkseg>
      <trkpt lat="47.33197" lon="0.46868">
        <ele>42</ele>
        <time>2019-08-09T09:43:27.000Z</time>
      </trkpt>
      <trkpt lat="47.33251" lon="0.46971">
        <ele>41</ele>
        <time>2019-08-09T09:44:11.192Z</time>
      </trkpt>
      <trkpt lat="47.33294" lon="0.47035">
        <ele>41</ele>
        <time>2019-08-09T09:44:41.571Z</time>
      </trkpt>
      <trkpt lat="47.33489" lon="0.47688">
        <ele>44</ele>
        <time>2019-08-09T09:48:43.321Z</time>
      </trkpt>
      <trkpt lat="47.33419" lon="0.47703">
        <ele>43</ele>
        <time>2019-08-09T09:49:18.621Z</time>
      </trkpt>
      <trkpt lat="47.33406" lon="0.47773">
        <ele>43</ele>
        <time>2019-08-09T09:49:43.509Z</time>
      </trkpt>
      <trkpt lat="47.33371" lon="0.47793">
        <ele>43</ele>
        <time>2019-08-09T09:50:02.158Z</time>
      </trkpt>
      <trkpt lat="47.33307" lon="0.4828">
        <ele>46</ele>
        <time>2019-08-09T09:52:50.420Z</time>
      </trkpt>
      <trkpt lat="47.33354" lon="0.48509">
        <ele>42</ele>
        <time>2019-08-09T09:54:11.858Z</time>
      </trkpt>
      <trkpt lat="47.33337" lon="0.48623">
        <ele>44</ele>
        <time>2019-08-09T09:54:51.365Z</time>
      </trkpt>
      <trkpt lat="47.33361" lon="0.48705">
        <ele>43</ele>
        <time>2019-08-09T09:55:21.362Z</time>
      </trkpt>
      <trkpt lat="47.33275" lon="0.48773">
        <ele>46</ele>
        <time>2019-08-09T09:56:10.208Z</time>
      </trkpt>
      <trkpt lat="47.33244" lon="0.48743">
        <ele>46</ele>
        <time>2019-08-09T09:56:28.569Z</time>
      </trkpt>
      <trkpt lat="47.33185" lon="0.4822">
        <ele>45</ele>
        <time>2019-08-09T09:59:28.599Z</time>
      </trkpt>
      <trkpt lat="47.33113" lon="0.48014">
        <ele>45</ele>
        <time>2019-08-09T10:00:47.089Z</time>
      </trkpt>
      <trkpt lat="47.33026" lon="0.47864">
        <ele>46</ele>
        <time>2019-08-09T10:01:54.095Z</time>
      </trkpt>
      <trkpt lat="47.3302" lon="0.47434">
        <ele>42</ele>
        <time>2019-08-09T10:04:19.683Z</time>
      </trkpt>
      <trkpt lat="47.33017" lon="0.47316">
        <ele>41</ele>
        <time>2019-08-09T10:04:59.728Z</time>
      </trkpt>
      <trkpt lat="47.32982" lon="0.47222">
        <ele>41</ele>
        <time>2019-08-09T10:05:36.196Z</time>
      </trkpt>
      <trkpt lat="47.32968" lon="0.47291">
        <ele>41</ele>
        <time>2019-08-09T10:06:00.614Z</time>
      </trkpt>
      <trkpt lat="47.32905" lon="0.47325">
        <ele>43</ele>
        <time>2019-08-09T10:06:33.981Z</time>
      </trkpt>
      <trkpt lat="47.32932" lon="0.47735">
        <ele>42</ele>
        <time>2019-08-09T10:08:53.581Z</time>
      </trkpt>
      <trkpt lat="47.32923" lon="0.47825">
        <ele>44</ele>
        <time>2019-08-09T10:09:24.480Z</time>
      </trkpt>
      <trkpt lat="47.32942" lon="0.47997">
        <ele>43</ele>
        <time>2019-08-09T10:10:23.441Z</time>
      </trkpt>
      <trkpt lat="47.32808" lon="0.4814">
        <ele>52</ele>
        <time>2019-08-09T10:11:46.271Z</time>
      </trkpt>
      <trkpt lat="47.3278" lon="0.48115">
        <ele>54</ele>
        <time>2019-08-09T10:12:02.662Z</time>
      </trkpt>
      <trkpt lat="47.3269" lon="0.48256">
        <ele>75</ele>
        <time>2019-08-09T10:13:08.558Z</time>
      </trkpt>
      <trkpt lat="47.32701" lon="0.48359">
        <ele>77</ele>
        <time>2019-08-09T10:13:43.946Z</time>
      </trkpt>
      <trkpt lat="47.32674" lon="0.48306">
        <ele>75</ele>
        <time>2019-08-09T10:14:06.713Z</time>
      </trkpt>
      <trkpt lat="47.32632" lon="0.48301">
        <ele>76</ele>
        <time>2019-08-09T10:14:27.879Z</time>
      </trkpt>
      <trkpt lat="47.32485" lon="0.48391">
        <ele>79</ele>
        <time>2019-08-09T10:15:47.484Z</time>
      </trkpt>
      <trkpt lat="47.32411" lon="0.48632">
        <ele>80</ele>
        <time>2019-08-09T10:17:17.078Z</time>
      </trkpt>
      <trkpt lat="47.32271" lon="0.4855">
        <ele>80</ele>
        <time>2019-08-09T10:18:32.214Z</time>
      </trkpt>
      <trkpt lat="47.3223" lon="0.486">
        <ele>81</ele>
        <time>2019-08-09T10:18:58.625Z</time>
      </trkpt>
      <trkpt lat="47.32139" lon="0.48664">
        <ele>76</ele>
        <time>2019-08-09T10:19:49.534Z</time>
      </trkpt>
      <trkpt lat="47.32041" lon="0.48672">
        <ele>68</ele>
        <time>2019-08-09T10:20:38.256Z</time>
      </trkpt>
      <trkpt lat="47.3194" lon="0.48741">
        <ele>59</ele>
        <time>2019-08-09T10:21:34.272Z</time>
      </trkpt>
      <trkpt lat="47.31889" lon="0.48851">
        <ele>58</ele>
        <time>2019-08-09T10:22:19.281Z</time>
      </trkpt>
      <trkpt lat="47.31826" lon="0.49018">
        <ele>58</ele>
        <time>2019-08-09T10:23:24.108Z</time>
      </trkpt>
      <trkpt lat="47.31771" lon="0.49155">
        <ele>63</ele>
        <time>2019-08-09T10:24:18.283Z</time>
      </trkpt>
      <trkpt lat="47.31634" lon="0.49102">
        <ele>65</ele>
        <time>2019-08-09T10:25:29.108Z</time>
      </trkpt>
      <trkpt lat="47.31592" lon="0.49061">
        <ele>66</ele>
        <time>2019-08-09T10:25:54.314Z</time>
      </trkpt>
      <trkpt lat="47.3155" lon="0.49076">
        <ele>74</ele>
        <time>2019-08-09T10:26:16.034Z</time>
      </trkpt>
      <trkpt lat="47.31477" lon="0.48999">
        <ele>79</ele>
        <time>2019-08-09T10:27:00.899Z</time>
      </trkpt>
      <trkpt lat="47.31259" lon="0.49069">
        <ele>88</ele>
        <time>2019-08-09T10:28:52.692Z</time>
      </trkpt>
      <trkpt lat="47.31185" lon="0.49087">
        <ele>86</ele>
        <time>2019-08-09T10:29:30.276Z</time>
      </trkpt>
      <trkpt lat="47.31067" lon="0.49132">
        <ele>80</ele>
        <time>2019-08-09T10:30:31.165Z</time>
      </trkpt>
      <trkpt lat="47.30981" lon="0.49106">
        <ele>77</ele>
        <time>2019-08-09T10:31:15.023Z</time>
      </trkpt>
      <trkpt lat="47.30857" lon="0.4902">
        <ele>72</ele>
        <time>2019-08-09T10:32:23.378Z</time>
      </trkpt>
      <trkpt lat="47.30827" lon="0.4896">
        <ele>67</ele>
        <time>2019-08-09T10:32:48.878Z</time>
      </trkpt>
      <trkpt lat="47.30696" lon="0.48698">
        <ele>70</ele>
        <time>2019-08-09T10:34:39.241Z</time>
      </trkpt>
      <trkpt lat="47.30674" lon="0.48507">
        <ele>67</ele>
        <time>2019-08-09T10:35:44.966Z</time>
      </trkpt>
      <trkpt lat="47.30677" lon="0.4846">
        <ele>69</ele>
        <time>2019-08-09T10:36:01.046Z</time>
      </trkpt>
      <trkpt lat="47.30815" lon="0.48293">
        <ele>72</ele>
        <time>2019-08-09T10:37:30.571Z</time>
      </trkpt>
      <trkpt lat="47.30949" lon="0.481">
        <ele>76</ele>
        <time>2019-08-09T10:39:04.136Z</time>
      </trkpt>
      <trkpt lat="47.3109" lon="0.47936">
        <ele>75</ele>
        <time>2019-08-09T10:40:33.958Z</time>
      </trkpt>
      <trkpt lat="47.31139" lon="0.48048">
        <ele>74</ele>
        <time>2019-08-09T10:41:19.202Z</time>
      </trkpt>
      <trkpt lat="47.31193" lon="0.48168">
        <ele>74</ele>
        <time>2019-08-09T10:42:08.065Z</time>
      </trkpt>
      <trkpt lat="47.31238" lon="0.48331">
        <ele>74</ele>
        <time>2019-08-09T10:43:07.823Z</time>
      </trkpt>
      <trkpt lat="47.31333" lon="0.48258">
        <ele>71</ele>
        <time>2019-08-09T10:44:01.246Z</time>
      </trkpt>
      <trkpt lat="47.31314" lon="0.48132">
        <ele>70</ele>
        <time>2019-08-09T10:44:45.224Z</time>
      </trkpt>
      <trkpt lat="47.31506" lon="0.47988">
        <ele>79</ele>
        <time>2019-08-09T10:46:32.972Z</time>
      </trkpt>
      <trkpt lat="47.31483" lon="0.47851">
        <ele>80</ele>
        <time>2019-08-09T10:47:20.987Z</time>
      </trkpt>
      <trkpt lat="47.31512" lon="0.47728">
        <ele>79</ele>
        <time>2019-08-09T10:48:04.957Z</time>
      </trkpt>
      <trkpt lat="47.315" lon="0.47565">
        <ele>77</ele>
        <time>2019-08-09T10:49:00.590Z</time>
      </trkpt>
      <trkpt lat="47.31522" lon="0.47406">
        <ele>77</ele>
        <time>2019-08-09T10:49:55.525Z</time>
      </trkpt>
      <trkpt lat="47.31509" lon="0.47286">
        <ele>77</ele>
        <time>2019-08-09T10:50:36.768Z</time>
      </trkpt>
      <trkpt lat="47.31492" lon="0.47076">
        <ele>81</ele>
        <time>2019-08-09T10:51:48.639Z</time>
      </trkpt>
      <trkpt lat="47.31486" lon="0.46956">
        <ele>81</ele>
        <time>2019-08-09T10:52:29.519Z</time>
      </trkpt>
      <trkpt lat="47.31496" lon="0.46728">
        <ele>82</ele>
        <time>2019-08-09T10:53:46.828Z</time>
      </trkpt>
      <trkpt lat="47.31486" lon="0.46514">
        <ele>79</ele>
        <time>2019-08-09T10:54:59.804Z</time>
      </trkpt>
      <trkpt lat="47.31506" lon="0.46385">
        <ele>77</ele>
        <time>2019-08-09T10:55:44.663Z</time>
      </trkpt>
      <trkpt lat="47.31522" lon="0.46211">
        <ele>72</ele>
        <time>2019-08-09T10:56:44.164Z</time>
      </trkpt>
      <trkpt lat="47.31521" lon="0.46191">
        <ele>72</ele>
        <time>2019-08-09T10:56:51.065Z</time>
      </trkpt>
      <trkpt lat="47.31467" lon="0.46085">
        <ele>69</ele>
        <time>2019-08-09T10:57:36.066Z</time>
      </trkpt>
      <trkpt lat="47.31494" lon="0.45967">
        <ele>66</ele>
        <time>2019-08-09T10:58:18.188Z</time>
      </trkpt>
      <trkpt lat="47.31491" lon="0.45909">
        <ele>66</ele>
        <time>2019-08-09T10:58:37.884Z</time>
      </trkpt>
      <trkpt lat="47.31474" lon="0.45855">
        <ele>66</ele>
        <time>2019-08-09T10:58:57.926Z</time>
      </trkpt>
      <trkpt lat="47.31454" lon="0.45796">
        <ele>66</ele>
        <time>2019-08-09T10:59:20.237Z</time>
      </trkpt>
      <trkpt lat="47.3145" lon="0.4575">
        <ele>64</ele>
        <time>2019-08-09T10:59:36.023Z</time>
      </trkpt>
      <trkpt lat="47.31467" lon="0.457">
        <ele>62</ele>
        <time>2019-08-09T10:59:55.210Z</time>
      </trkpt>
      <trkpt lat="47.31435" lon="0.4559">
        <ele>56</ele>
        <time>2019-08-09T11:00:35.801Z</time>
      </trkpt>
      <trkpt lat="47.3143" lon="0.45528">
        <ele>47</ele>
        <time>2019-08-09T11:00:57.017Z</time>
      </trkpt>
      <trkpt lat="47.31416" lon="0.45445">
        <ele>46</ele>
        <time>2019-08-09T11:01:25.963Z</time>
      </trkpt>
      <trkpt lat="47.31465" lon="0.45452">
        <ele>41</ele>
        <time>2019-08-09T11:01:50.777Z</time>
      </trkpt>
      <trkpt lat="47.31497" lon="0.45503">
        <ele>41</ele>
        <time>2019-08-09T11:02:14.475Z</time>
      </trkpt>
      <trkpt lat="47.31529" lon="0.45485">
        <ele>40</ele>
        <time>2019-08-09T11:02:31.683Z</time>
      </trkpt>
      <trkpt lat="47.31595" lon="0.4543">
        <ele>40</ele>
        <time>2019-08-09T11:03:09.303Z</time>
      </trkpt>
      <trkpt lat="47.31619" lon="0.45369">
        <ele>40</ele>
        <time>2019-08-09T11:03:33.464Z</time>
      </trkpt>
      <trkpt lat="47.31622" lon="0.45435">
        <ele>40</ele>
        <time>2019-08-09T11:03:55.711Z</time>
      </trkpt>
      <trkpt lat="47.31655" lon="0.45505">
        <ele>42</ele>
        <time>2019-08-09T11:04:25.000Z</time>
      </trkpt>
      <trkpt lat="47.3171" lon="0.4559">
        <ele>44</ele>
        <time>2019-08-09T11:05:04.890Z</time>
      </trkpt>
      <trkpt lat="47.31728" lon="0.45645">
        <ele>44</ele>
        <time>2019-08-09T11:05:25.417Z</time>
      </trkpt>
      <trkpt lat="47.31777" lon="0.45736">
        <ele>42</ele>
        <time>2019-08-09T11:06:05.048Z</time>
      </trkpt>
      <trkpt lat="47.31809" lon="0.45868">
        <ele>42</ele>
        <time>2019-08-09T11:06:52.570Z</time>
      </trkpt>
      <trkpt lat="47.31827" lon="0.45892">
        <ele>42</ele>
        <time>2019-08-09T11:07:04.695Z</time>
      </trkpt>
      <trkpt lat="47.31855" lon="0.45969">
        <ele>42</ele>
        <time>2019-08-09T11:07:34.378Z</time>
      </trkpt>
      <trkpt lat="47.31877" lon="0.46007">
        <ele>43</ele>
        <time>2019-08-09T11:07:51.420Z</time>
      </trkpt>
      <trkpt lat="47.31916" lon="0.4604">
        <ele>43</ele>
        <time>2019-08-09T11:08:13.871Z</time>
      </trkpt>
      <trkpt lat="47.3197" lon="0.46132">
        <ele>44</ele>
        <time>2019-08-09T11:08:55.169Z</time>
      </trkpt>
      <trkpt lat="47.3204" lon="0.46248">
        <ele>47</ele>
        <time>2019-08-09T11:09:47.757Z</time>
      </trkpt>
      <trkpt lat="47.32344" lon="0.46623">
        <ele>42</ele>
        <time>2019-08-09T11:13:06.154Z</time>
      </trkpt>
      <trkpt lat="47.32418" lon="0.46731">
        <ele>42</ele>
        <time>2019-08-09T11:13:58.145Z</time>
      </trkpt>
      <trkpt lat="47.32485" lon="0.46771">
        <ele>41</ele>
        <time>2019-08-09T11:14:34.368Z</time>
      </trkpt>
      <trkpt lat="47.32518" lon="0.46851">
        <ele>42</ele>
        <time>2019-08-09T11:15:06.063Z</time>
      </trkpt>
      <trkpt lat="47.32581" lon="0.46902">
        <ele>44</ele>
        <time>2019-08-09T11:15:41.928Z</time>
      </trkpt>
      <trkpt lat="47.32619" lon="0.47042">
        <ele>44</ele>
        <time>2019-08-09T11:16:32.883Z</time>
      </trkpt>
      <trkpt lat="47.32673" lon="0.47065">
        <ele>42</ele>
        <time>2019-08-09T11:17:00.968Z</time>
      </trkpt>
      <trkpt lat="47.32761" lon="0.47061">
        <ele>41</ele>
        <time>2019-08-09T11:17:45.375Z</time>
      </trkpt>
      <trkpt lat="47.32824" lon="0.47031">
        <ele>41</ele>
        <time>2019-08-09T11:18:18.320Z</time>
      </trkpt>
      <trkpt lat="47.32939" lon="0.47115">
        <ele>40</ele>
        <time>2019-08-09T11:19:22.439Z</time>
      </trkpt>
      <trkpt lat="47.32937" lon="0.47044">
        <ele>40</ele>
        <time>2019-08-09T11:19:46.462Z</time>
      </trkpt>
      <trkpt lat="47.32971" lon="0.47012">
        <ele>39</ele>
        <time>2019-08-09T11:20:06.468Z</time>
      </trkpt>
      <trkpt lat="47.33166" lon="0.46889">
        <ele>41</ele>
        <time>2019-08-09T11:21:52.399Z</time>
      </trkpt>
    </trkseg>
  </trk>
</gpx>